sensor_id;sensor_type;location;lat;lon;timestamp;P1;durP1;ratioP1;P2;durP2;ratioP2
12990;SDS011;6560;57.692;11.958;2023-05-09T00:01:28;4.37;;;3.20;;
12990;SDS011;6560;57.692;11.958;2023-05-09T00:03:55;3.33;;;2.67;;
12990;SDS011;6560;57.692;11.958;2023-05-09T00:06:20;5.53;;;2.80;;
12990;SDS011;6560;57.692;11.958;2023-05-09T00:08:53;4.57;;;2.63;;
12990;SDS011;6560;57.692;11.958;2023-05-09T00:11:24;8.50;;;3.60;;
12990;SDS011;6560;57.692;11.958;2023-05-09T00:13:50;5.33;;;3.13;;
12990;SDS011;6560;57.692;11.958;2023-05-09T00:16:16;4.77;;;3.17;;
12990;SDS011;6560;57.692;11.958;2023-05-09T00:18:41;3.70;;;3.20;;
12990;SDS011;6560;57.692;11.958;2023-05-09T00:21:08;4.63;;;2.57;;
12990;SDS011;6560;57.692;11.958;2023-05-09T00:23:33;5.90;;;2.77;;
12990;SDS011;6560;57.692;11.958;2023-05-09T00:25:59;4.57;;;3.03;;
12990;SDS011;6560;57.692;11.958;2023-05-09T00:28:24;5.13;;;2.87;;
12990;SDS011;6560;57.692;11.958;2023-05-09T00:30:50;3.30;;;3.00;;
12990;SDS011;6560;57.692;11.958;2023-05-09T00:33:15;3.07;;;2.87;;
12990;SDS011;6560;57.692;11.958;2023-05-09T00:35:41;3.13;;;2.47;;
12990;SDS011;6560;57.692;11.958;2023-05-09T00:38:06;3.13;;;2.67;;
12990;SDS011;6560;57.692;11.958;2023-05-09T00:40:31;4.60;;;2.53;;
12990;SDS011;6560;57.692;11.958;2023-05-09T00:43:00;4.10;;;2.50;;
12990;SDS011;6560;57.692;11.958;2023-05-09T00:45:25;3.87;;;2.57;;
12990;SDS011;6560;57.692;11.958;2023-05-09T00:47:50;4.50;;;3.20;;
12990;SDS011;6560;57.692;11.958;2023-05-09T00:50:16;3.80;;;3.03;;
12990;SDS011;6560;57.692;11.958;2023-05-09T00:52:42;4.20;;;2.97;;
12990;SDS011;6560;57.692;11.958;2023-05-09T00:55:07;6.63;;;2.67;;
12990;SDS011;6560;57.692;11.958;2023-05-09T00:57:33;3.50;;;3.20;;
12990;SDS011;6560;57.692;11.958;2023-05-09T00:59:59;9.10;;;3.40;;
12990;SDS011;6560;57.692;11.958;2023-05-09T01:02:24;3.17;;;2.60;;
12990;SDS011;6560;57.692;11.958;2023-05-09T01:04:50;7.20;;;3.17;;
12990;SDS011;6560;57.692;11.958;2023-05-09T01:07:17;5.40;;;2.87;;
12990;SDS011;6560;57.692;11.958;2023-05-09T01:09:59;13.17;;;3.67;;
12990;SDS011;6560;57.692;11.958;2023-05-09T01:15:28;6.30;;;3.30;;
12990;SDS011;6560;57.692;11.958;2023-05-09T01:18:07;3.83;;;2.77;;
12990;SDS011;6560;57.692;11.958;2023-05-09T01:25:43;3.43;;;2.53;;
12990;SDS011;6560;57.692;11.958;2023-05-09T01:28:13;13.63;;;2.97;;
12990;SDS011;6560;57.692;11.958;2023-05-09T01:30:44;5.63;;;2.73;;
12990;SDS011;6560;57.692;11.958;2023-05-09T01:33:11;4.27;;;2.63;;
12990;SDS011;6560;57.692;11.958;2023-05-09T01:35:37;2.73;;;2.50;;
12990;SDS011;6560;57.692;11.958;2023-05-09T01:38:09;2.80;;;2.60;;
12990;SDS011;6560;57.692;11.958;2023-05-09T01:40:34;3.23;;;2.10;;
12990;SDS011;6560;57.692;11.958;2023-05-09T01:43:03;5.13;;;2.63;;
12990;SDS011;6560;57.692;11.958;2023-05-09T01:45:29;3.03;;;2.80;;
12990;SDS011;6560;57.692;11.958;2023-05-09T01:47:56;2.73;;;2.50;;
12990;SDS011;6560;57.692;11.958;2023-05-09T01:50:21;4.60;;;2.50;;
12990;SDS011;6560;57.692;11.958;2023-05-09T01:52:48;4.33;;;3.17;;
12990;SDS011;6560;57.692;11.958;2023-05-09T01:55:14;4.73;;;2.60;;
12990;SDS011;6560;57.692;11.958;2023-05-09T01:57:39;3.30;;;2.87;;
12990;SDS011;6560;57.692;11.958;2023-05-09T02:00:06;3.60;;;2.87;;
12990;SDS011;6560;57.692;11.958;2023-05-09T02:02:33;5.10;;;2.90;;
12990;SDS011;6560;57.692;11.958;2023-05-09T02:04:58;8.03;;;2.63;;
12990;SDS011;6560;57.692;11.958;2023-05-09T02:07:25;3.87;;;2.57;;
12990;SDS011;6560;57.692;11.958;2023-05-09T02:09:50;5.33;;;3.20;;
12990;SDS011;6560;57.692;11.958;2023-05-09T02:12:18;3.03;;;2.73;;
12990;SDS011;6560;57.692;11.958;2023-05-09T02:14:43;3.87;;;2.60;;
12990;SDS011;6560;57.692;11.958;2023-05-09T02:17:09;4.43;;;3.27;;
12990;SDS011;6560;57.692;11.958;2023-05-09T02:19:35;2.63;;;2.30;;
12990;SDS011;6560;57.692;11.958;2023-05-09T02:22:00;3.10;;;2.77;;
12990;SDS011;6560;57.692;11.958;2023-05-09T02:24:26;2.93;;;2.60;;
12990;SDS011;6560;57.692;11.958;2023-05-09T02:26:51;4.63;;;2.90;;
12990;SDS011;6560;57.692;11.958;2023-05-09T02:29:17;5.23;;;2.63;;
12990;SDS011;6560;57.692;11.958;2023-05-09T02:31:44;2.50;;;2.30;;
12990;SDS011;6560;57.692;11.958;2023-05-09T02:34:11;4.33;;;3.10;;
12990;SDS011;6560;57.692;11.958;2023-05-09T02:36:37;6.40;;;3.50;;
12990;SDS011;6560;57.692;11.958;2023-05-09T02:39:03;2.70;;;2.50;;
12990;SDS011;6560;57.692;11.958;2023-05-09T02:41:28;3.40;;;3.03;;
12990;SDS011;6560;57.692;11.958;2023-05-09T02:43:54;5.13;;;3.30;;
12990;SDS011;6560;57.692;11.958;2023-05-09T02:46:19;3.20;;;2.80;;
12990;SDS011;6560;57.692;11.958;2023-05-09T02:48:45;3.10;;;2.80;;
12990;SDS011;6560;57.692;11.958;2023-05-09T02:51:10;2.93;;;2.63;;
12990;SDS011;6560;57.692;11.958;2023-05-09T02:53:35;3.90;;;2.80;;
12990;SDS011;6560;57.692;11.958;2023-05-09T02:56:01;3.30;;;2.83;;
12990;SDS011;6560;57.692;11.958;2023-05-09T02:58:27;3.50;;;2.70;;
12990;SDS011;6560;57.692;11.958;2023-05-09T03:00:53;4.63;;;2.67;;
12990;SDS011;6560;57.692;11.958;2023-05-09T03:03:21;3.17;;;2.77;;
12990;SDS011;6560;57.692;11.958;2023-05-09T03:21:28;3.50;;;2.60;;
12990;SDS011;6560;57.692;11.958;2023-05-09T03:24:00;4.47;;;2.30;;
12990;SDS011;6560;57.692;11.958;2023-05-09T03:26:26;3.53;;;3.00;;
12990;SDS011;6560;57.692;11.958;2023-05-09T03:28:51;4.97;;;2.97;;
12990;SDS011;6560;57.692;11.958;2023-05-09T03:31:16;6.10;;;3.03;;
12990;SDS011;6560;57.692;11.958;2023-05-09T03:33:42;4.30;;;3.30;;
12990;SDS011;6560;57.692;11.958;2023-05-09T03:36:07;4.23;;;2.80;;
12990;SDS011;6560;57.692;11.958;2023-05-09T03:38:33;4.03;;;2.67;;
12990;SDS011;6560;57.692;11.958;2023-05-09T03:40:58;3.67;;;3.13;;
12990;SDS011;6560;57.692;11.958;2023-05-09T03:43:23;3.23;;;2.67;;
12990;SDS011;6560;57.692;11.958;2023-05-09T03:45:49;2.60;;;2.40;;
12990;SDS011;6560;57.692;11.958;2023-05-09T03:48:14;5.50;;;3.17;;
12990;SDS011;6560;57.692;11.958;2023-05-09T03:50:40;3.37;;;3.03;;
12990;SDS011;6560;57.692;11.958;2023-05-09T03:53:05;3.93;;;3.03;;
12990;SDS011;6560;57.692;11.958;2023-05-09T03:55:31;5.63;;;2.73;;
12990;SDS011;6560;57.692;11.958;2023-05-09T03:57:56;3.30;;;3.00;;
12990;SDS011;6560;57.692;11.958;2023-05-09T04:00:22;3.33;;;3.03;;
12990;SDS011;6560;57.692;11.958;2023-05-09T04:02:47;5.07;;;3.10;;
12990;SDS011;6560;57.692;11.958;2023-05-09T04:05:13;2.93;;;2.53;;
12990;SDS011;6560;57.692;11.958;2023-05-09T04:07:39;4.27;;;3.10;;
12990;SDS011;6560;57.692;11.958;2023-05-09T04:10:04;3.80;;;2.63;;
12990;SDS011;6560;57.692;11.958;2023-05-09T04:12:30;4.17;;;2.63;;
12990;SDS011;6560;57.692;11.958;2023-05-09T04:14:55;4.77;;;2.97;;
12990;SDS011;6560;57.692;11.958;2023-05-09T04:17:23;4.10;;;2.40;;
12990;SDS011;6560;57.692;11.958;2023-05-09T04:19:48;3.20;;;2.90;;
12990;SDS011;6560;57.692;11.958;2023-05-09T04:22:14;3.57;;;3.10;;
12990;SDS011;6560;57.692;11.958;2023-05-09T04:24:40;3.70;;;2.97;;
12990;SDS011;6560;57.692;11.958;2023-05-09T04:27:06;5.13;;;3.00;;
12990;SDS011;6560;57.692;11.958;2023-05-09T04:29:32;5.50;;;2.30;;
12990;SDS011;6560;57.692;11.958;2023-05-09T04:31:57;2.60;;;2.40;;
12990;SDS011;6560;57.692;11.958;2023-05-09T04:34:23;5.60;;;3.33;;
12990;SDS011;6560;57.692;11.958;2023-05-09T04:36:50;3.77;;;2.70;;
12990;SDS011;6560;57.692;11.958;2023-05-09T04:39:16;5.93;;;3.30;;
12990;SDS011;6560;57.692;11.958;2023-05-09T04:41:41;6.67;;;3.40;;
12990;SDS011;6560;57.692;11.958;2023-05-09T04:44:08;5.80;;;2.70;;
12990;SDS011;6560;57.692;11.958;2023-05-09T04:46:33;3.93;;;3.00;;
12990;SDS011;6560;57.692;11.958;2023-05-09T04:48:59;4.70;;;2.73;;
12990;SDS011;6560;57.692;11.958;2023-05-09T04:51:24;3.40;;;3.10;;
12990;SDS011;6560;57.692;11.958;2023-05-09T04:53:50;4.07;;;2.90;;
12990;SDS011;6560;57.692;11.958;2023-05-09T04:56:15;5.73;;;3.33;;
12990;SDS011;6560;57.692;11.958;2023-05-09T04:58:41;4.43;;;2.37;;
12990;SDS011;6560;57.692;11.958;2023-05-09T05:01:06;6.93;;;3.23;;
12990;SDS011;6560;57.692;11.958;2023-05-09T05:03:31;5.27;;;3.40;;
12990;SDS011;6560;57.692;11.958;2023-05-09T05:05:57;4.43;;;3.10;;
12990;SDS011;6560;57.692;11.958;2023-05-09T05:08:28;3.70;;;2.80;;
12990;SDS011;6560;57.692;11.958;2023-05-09T05:10:54;4.90;;;3.37;;
12990;SDS011;6560;57.692;11.958;2023-05-09T05:13:19;5.40;;;3.13;;
12990;SDS011;6560;57.692;11.958;2023-05-09T05:15:46;3.30;;;2.77;;
12990;SDS011;6560;57.692;11.958;2023-05-09T05:18:12;10.33;;;3.30;;
12990;SDS011;6560;57.692;11.958;2023-05-09T05:20:40;4.07;;;3.00;;
12990;SDS011;6560;57.692;11.958;2023-05-09T05:23:06;6.03;;;3.10;;
12990;SDS011;6560;57.692;11.958;2023-05-09T05:25:31;4.60;;;3.13;;
12990;SDS011;6560;57.692;11.958;2023-05-09T05:27:57;4.70;;;3.07;;
12990;SDS011;6560;57.692;11.958;2023-05-09T05:30:25;5.60;;;2.77;;
12990;SDS011;6560;57.692;11.958;2023-05-09T05:32:50;7.80;;;3.27;;
12990;SDS011;6560;57.692;11.958;2023-05-09T05:35:16;4.87;;;2.70;;
12990;SDS011;6560;57.692;11.958;2023-05-09T05:37:43;5.13;;;3.27;;
12990;SDS011;6560;57.692;11.958;2023-05-09T05:40:10;4.30;;;3.27;;
12990;SDS011;6560;57.692;11.958;2023-05-09T05:42:36;4.33;;;3.53;;
12990;SDS011;6560;57.692;11.958;2023-05-09T05:45:08;4.53;;;3.20;;
12990;SDS011;6560;57.692;11.958;2023-05-09T05:47:34;4.80;;;2.93;;
12990;SDS011;6560;57.692;11.958;2023-05-09T05:50:00;10.50;;;3.80;;
12990;SDS011;6560;57.692;11.958;2023-05-09T05:52:25;5.37;;;3.10;;
12990;SDS011;6560;57.692;11.958;2023-05-09T05:54:51;5.13;;;3.00;;
12990;SDS011;6560;57.692;11.958;2023-05-09T05:57:17;3.93;;;2.93;;
12990;SDS011;6560;57.692;11.958;2023-05-09T05:59:42;4.90;;;2.93;;
12990;SDS011;6560;57.692;11.958;2023-05-09T06:02:07;3.43;;;3.10;;
12990;SDS011;6560;57.692;11.958;2023-05-09T06:04:33;4.43;;;3.60;;
12990;SDS011;6560;57.692;11.958;2023-05-09T06:06:58;5.63;;;2.72;;
12990;SDS011;6560;57.692;11.958;2023-05-09T06:09:24;6.25;;;3.10;;
12990;SDS011;6560;57.692;11.958;2023-05-09T06:11:49;5.70;;;2.95;;
12990;SDS011;6560;57.692;11.958;2023-05-09T06:14:14;5.95;;;3.03;;
12990;SDS011;6560;57.692;11.958;2023-05-09T06:16:40;3.22;;;2.92;;
12990;SDS011;6560;57.692;11.958;2023-05-09T06:19:05;5.15;;;3.30;;
12990;SDS011;6560;57.692;11.958;2023-05-09T06:21:34;6.05;;;2.78;;
12990;SDS011;6560;57.692;11.958;2023-05-09T06:24:02;5.63;;;3.47;;
12990;SDS011;6560;57.692;11.958;2023-05-09T06:26:31;5.65;;;3.08;;
12990;SDS011;6560;57.692;11.958;2023-05-09T06:28:58;4.40;;;3.30;;
12990;SDS011;6560;57.692;11.958;2023-05-09T06:31:30;5.53;;;3.42;;
12990;SDS011;6560;57.692;11.958;2023-05-09T06:33:56;3.65;;;2.92;;
12990;SDS011;6560;57.692;11.958;2023-05-09T06:36:26;4.88;;;2.97;;
12990;SDS011;6560;57.692;11.958;2023-05-09T06:38:51;4.88;;;3.67;;
12990;SDS011;6560;57.692;11.958;2023-05-09T06:41:18;5.50;;;3.40;;
12990;SDS011;6560;57.692;11.958;2023-05-09T06:43:48;5.63;;;3.63;;
12990;SDS011;6560;57.692;11.958;2023-05-09T06:46:14;3.53;;;3.15;;
12990;SDS011;6560;57.692;11.958;2023-05-09T06:48:40;4.28;;;3.08;;
12990;SDS011;6560;57.692;11.958;2023-05-09T06:51:05;4.28;;;3.05;;
12990;SDS011;6560;57.692;11.958;2023-05-09T06:53:31;6.63;;;3.13;;
12990;SDS011;6560;57.692;11.958;2023-05-09T06:55:56;4.50;;;2.70;;
12990;SDS011;6560;57.692;11.958;2023-05-09T06:58:21;7.13;;;3.30;;
12990;SDS011;6560;57.692;11.958;2023-05-09T07:00:47;6.10;;;2.88;;
12990;SDS011;6560;57.692;11.958;2023-05-09T07:03:14;4.10;;;2.80;;
12990;SDS011;6560;57.692;11.958;2023-05-09T07:05:40;4.80;;;2.58;;
12990;SDS011;6560;57.692;11.958;2023-05-09T07:08:05;5.13;;;3.10;;
12990;SDS011;6560;57.692;11.958;2023-05-09T07:10:31;7.05;;;3.05;;
12990;SDS011;6560;57.692;11.958;2023-05-09T07:12:56;6.55;;;3.33;;
12990;SDS011;6560;57.692;11.958;2023-05-09T07:15:22;7.80;;;3.70;;
12990;SDS011;6560;57.692;11.958;2023-05-09T07:17:47;7.82;;;3.33;;
12990;SDS011;6560;57.692;11.958;2023-05-09T07:20:12;6.65;;;2.70;;
12990;SDS011;6560;57.692;11.958;2023-05-09T07:22:37;4.65;;;2.97;;
12990;SDS011;6560;57.692;11.958;2023-05-09T07:25:04;4.47;;;3.13;;
12990;SDS011;6560;57.692;11.958;2023-05-09T07:27:39;6.10;;;3.28;;
12990;SDS011;6560;57.692;11.958;2023-05-09T07:30:04;6.13;;;3.17;;
12990;SDS011;6560;57.692;11.958;2023-05-09T07:32:30;6.00;;;3.53;;
12990;SDS011;6560;57.692;11.958;2023-05-09T07:34:56;5.85;;;2.95;;
12990;SDS011;6560;57.692;11.958;2023-05-09T07:37:21;3.58;;;3.00;;
12990;SDS011;6560;57.692;11.958;2023-05-09T07:39:48;7.38;;;2.90;;
12990;SDS011;6560;57.692;11.958;2023-05-09T07:42:13;4.80;;;3.00;;
12990;SDS011;6560;57.692;11.958;2023-05-09T07:44:40;7.03;;;3.40;;
12990;SDS011;6560;57.692;11.958;2023-05-09T07:47:05;7.32;;;3.00;;
12990;SDS011;6560;57.692;11.958;2023-05-09T07:49:33;2.90;;;2.60;;
12990;SDS011;6560;57.692;11.958;2023-05-09T07:51:58;4.38;;;3.20;;
12990;SDS011;6560;57.692;11.958;2023-05-09T07:54:23;4.43;;;3.10;;
12990;SDS011;6560;57.692;11.958;2023-05-09T07:56:49;3.40;;;2.50;;
12990;SDS011;6560;57.692;11.958;2023-05-09T07:59:15;7.13;;;2.70;;
12990;SDS011;6560;57.692;11.958;2023-05-09T08:01:42;5.47;;;2.83;;
12990;SDS011;6560;57.692;11.958;2023-05-09T08:04:07;5.63;;;2.80;;
12990;SDS011;6560;57.692;11.958;2023-05-09T08:06:33;5.97;;;2.80;;
12990;SDS011;6560;57.692;11.958;2023-05-09T08:08:59;4.97;;;2.75;;
12990;SDS011;6560;57.692;11.958;2023-05-09T08:11:24;8.82;;;3.60;;
12990;SDS011;6560;57.692;11.958;2023-05-09T08:13:50;6.15;;;3.03;;
12990;SDS011;6560;57.692;11.958;2023-05-09T08:16:16;6.05;;;3.00;;
12990;SDS011;6560;57.692;11.958;2023-05-09T08:18:41;6.63;;;2.30;;
12990;SDS011;6560;57.692;11.958;2023-05-09T08:21:07;8.23;;;3.03;;
12990;SDS011;6560;57.692;11.958;2023-05-09T08:23:34;5.75;;;2.70;;
12990;SDS011;6560;57.692;11.958;2023-05-09T08:25:59;4.47;;;2.90;;
12990;SDS011;6560;57.692;11.958;2023-05-09T08:28:25;6.88;;;2.55;;
12990;SDS011;6560;57.692;11.958;2023-05-09T08:30:53;3.08;;;2.47;;
12990;SDS011;6560;57.692;11.958;2023-05-09T08:33:18;4.32;;;2.33;;
12990;SDS011;6560;57.692;11.958;2023-05-09T08:35:44;11.90;;;2.92;;
12990;SDS011;6560;57.692;11.958;2023-05-09T08:38:09;5.53;;;2.63;;
12990;SDS011;6560;57.692;11.958;2023-05-09T08:40:36;2.28;;;2.08;;
12990;SDS011;6560;57.692;11.958;2023-05-09T08:43:02;4.97;;;2.72;;
12990;SDS011;6560;57.692;11.958;2023-05-09T08:45:28;3.90;;;2.55;;
12990;SDS011;6560;57.692;11.958;2023-05-09T08:47:54;7.93;;;2.97;;
12990;SDS011;6560;57.692;11.958;2023-05-09T08:50:20;4.45;;;2.40;;
12990;SDS011;6560;57.692;11.958;2023-05-09T08:52:45;3.10;;;2.15;;
12990;SDS011;6560;57.692;11.958;2023-05-09T08:55:11;2.53;;;1.85;;
12990;SDS011;6560;57.692;11.958;2023-05-09T08:57:36;3.60;;;2.30;;
12990;SDS011;6560;57.692;11.958;2023-05-09T09:00:02;3.70;;;2.40;;
12990;SDS011;6560;57.692;11.958;2023-05-09T09:02:31;2.95;;;2.10;;
12990;SDS011;6560;57.692;11.958;2023-05-09T09:04:56;4.63;;;2.10;;
12990;SDS011;6560;57.692;11.958;2023-05-09T09:07:21;2.45;;;2.17;;
12990;SDS011;6560;57.692;11.958;2023-05-09T09:09:47;4.60;;;2.60;;
12990;SDS011;6560;57.692;11.958;2023-05-09T09:12:14;4.97;;;2.65;;
12990;SDS011;6560;57.692;11.958;2023-05-09T09:14:41;5.07;;;2.53;;
12990;SDS011;6560;57.692;11.958;2023-05-09T09:17:07;3.95;;;2.78;;
12990;SDS011;6560;57.692;11.958;2023-05-09T09:19:36;3.63;;;2.00;;
12990;SDS011;6560;57.692;11.958;2023-05-09T09:22:04;6.60;;;2.53;;
12990;SDS011;6560;57.692;11.958;2023-05-09T09:24:29;4.47;;;2.47;;
12990;SDS011;6560;57.692;11.958;2023-05-09T09:26:56;6.05;;;2.40;;
12990;SDS011;6560;57.692;11.958;2023-05-09T09:29:28;5.60;;;2.08;;
12990;SDS011;6560;57.692;11.958;2023-05-09T09:31:54;9.52;;;2.35;;
12990;SDS011;6560;57.692;11.958;2023-05-09T09:34:20;4.43;;;2.15;;
12990;SDS011;6560;57.692;11.958;2023-05-09T09:36:46;5.20;;;2.85;;
12990;SDS011;6560;57.692;11.958;2023-05-09T09:39:12;10.23;;;2.20;;
12990;SDS011;6560;57.692;11.958;2023-05-09T09:41:38;4.75;;;2.17;;
12990;SDS011;6560;57.692;11.958;2023-05-09T09:44:06;7.65;;;2.55;;
12990;SDS011;6560;57.692;11.958;2023-05-09T09:46:51;5.88;;;1.95;;
12990;SDS011;6560;57.692;11.958;2023-05-09T09:49:17;11.27;;;2.75;;
12990;SDS011;6560;57.692;11.958;2023-05-09T09:51:50;4.75;;;2.40;;
12990;SDS011;6560;57.692;11.958;2023-05-09T09:54:16;5.93;;;2.30;;
12990;SDS011;6560;57.692;11.958;2023-05-09T09:56:48;7.28;;;2.10;;
12990;SDS011;6560;57.692;11.958;2023-05-09T09:59:14;7.22;;;2.17;;
12990;SDS011;6560;57.692;11.958;2023-05-09T10:04:24;5.35;;;2.15;;
12990;SDS011;6560;57.692;11.958;2023-05-09T10:06:56;5.45;;;2.60;;
12990;SDS011;6560;57.692;11.958;2023-05-09T10:09:25;2.22;;;2.00;;
12990;SDS011;6560;57.692;11.958;2023-05-09T10:11:51;5.90;;;2.40;;
12990;SDS011;6560;57.692;11.958;2023-05-09T10:14:17;4.13;;;2.10;;
12990;SDS011;6560;57.692;11.958;2023-05-09T10:16:42;7.90;;;1.85;;
12990;SDS011;6560;57.692;11.958;2023-05-09T10:19:08;4.80;;;2.13;;
12990;SDS011;6560;57.692;11.958;2023-05-09T10:21:34;6.38;;;2.67;;
12990;SDS011;6560;57.692;11.958;2023-05-09T10:24:00;14.60;;;2.83;;
12990;SDS011;6560;57.692;11.958;2023-05-09T10:26:27;5.07;;;2.22;;
12990;SDS011;6560;57.692;11.958;2023-05-09T10:28:56;7.03;;;2.75;;
12990;SDS011;6560;57.692;11.958;2023-05-09T10:31:24;2.20;;;1.85;;
12990;SDS011;6560;57.692;11.958;2023-05-09T10:33:50;2.95;;;1.92;;
12990;SDS011;6560;57.692;11.958;2023-05-09T10:36:17;6.22;;;2.30;;
12990;SDS011;6560;57.692;11.958;2023-05-09T10:38:42;5.00;;;2.28;;
12990;SDS011;6560;57.692;11.958;2023-05-09T10:41:09;4.60;;;2.42;;
12990;SDS011;6560;57.692;11.958;2023-05-09T10:43:34;8.20;;;2.33;;
12990;SDS011;6560;57.692;11.958;2023-05-09T10:46:00;6.82;;;2.30;;
12990;SDS011;6560;57.692;11.958;2023-05-09T10:48:26;6.85;;;2.40;;
12990;SDS011;6560;57.692;11.958;2023-05-09T10:50:52;5.72;;;2.38;;
12990;SDS011;6560;57.692;11.958;2023-05-09T10:53:17;3.65;;;1.80;;
12990;SDS011;6560;57.692;11.958;2023-05-09T10:58:28;3.67;;;2.38;;
12990;SDS011;6560;57.692;11.958;2023-05-09T11:01:03;3.75;;;2.55;;
12990;SDS011;6560;57.692;11.958;2023-05-09T11:09:12;6.30;;;2.13;;
12990;SDS011;6560;57.692;11.958;2023-05-09T11:11:58;5.60;;;2.90;;
12990;SDS011;6560;57.692;11.958;2023-05-09T11:14:43;7.07;;;2.95;;
12990;SDS011;6560;57.692;11.958;2023-05-09T11:17:27;6.15;;;3.58;;
12990;SDS011;6560;57.692;11.958;2023-05-09T11:20:32;5.72;;;2.78;;
12990;SDS011;6560;57.692;11.958;2023-05-09T11:23:02;3.25;;;1.63;;
12990;SDS011;6560;57.692;11.958;2023-05-09T11:25:28;7.30;;;2.10;;
12990;SDS011;6560;57.692;11.958;2023-05-09T11:27:57;7.50;;;2.05;;
12990;SDS011;6560;57.692;11.958;2023-05-09T11:30:22;5.38;;;1.90;;
12990;SDS011;6560;57.692;11.958;2023-05-09T11:32:58;10.25;;;2.15;;
12990;SDS011;6560;57.692;11.958;2023-05-09T11:35:24;2.45;;;1.75;;
12990;SDS011;6560;57.692;11.958;2023-05-09T11:38:06;4.80;;;2.30;;
12990;SDS011;6560;57.692;11.958;2023-05-09T11:40:33;5.55;;;2.20;;
12990;SDS011;6560;57.692;11.958;2023-05-09T11:42:59;4.00;;;2.10;;
12990;SDS011;6560;57.692;11.958;2023-05-09T11:45:26;2.60;;;2.13;;
12990;SDS011;6560;57.692;11.958;2023-05-09T11:47:51;5.55;;;2.13;;
12990;SDS011;6560;57.692;11.958;2023-05-09T11:50:17;6.82;;;1.73;;
12990;SDS011;6560;57.692;11.958;2023-05-09T11:52:44;3.00;;;1.75;;
12990;SDS011;6560;57.692;11.958;2023-05-09T11:55:10;4.53;;;1.88;;
12990;SDS011;6560;57.692;11.958;2023-05-09T11:57:40;3.13;;;1.17;;
12990;SDS011;6560;57.692;11.958;2023-05-09T12:00:05;1.95;;;1.75;;
12990;SDS011;6560;57.692;11.958;2023-05-09T12:02:33;3.22;;;1.20;;
12990;SDS011;6560;57.692;11.958;2023-05-09T12:05:05;1.67;;;1.38;;
12990;SDS011;6560;57.692;11.958;2023-05-09T12:07:32;6.63;;;1.90;;
12990;SDS011;6560;57.692;11.958;2023-05-09T12:09:58;5.10;;;1.92;;
12990;SDS011;6560;57.692;11.958;2023-05-09T12:12:23;3.25;;;1.45;;
12990;SDS011;6560;57.692;11.958;2023-05-09T12:14:49;2.10;;;1.17;;
12990;SDS011;6560;57.692;11.958;2023-05-09T12:17:14;2.03;;;1.55;;
12990;SDS011;6560;57.692;11.958;2023-05-09T12:19:39;1.65;;;1.10;;
12990;SDS011;6560;57.692;11.958;2023-05-09T12:22:05;6.75;;;1.98;;
12990;SDS011;6560;57.692;11.958;2023-05-09T12:24:30;5.25;;;2.22;;
12990;SDS011;6560;57.692;11.958;2023-05-09T12:26:59;5.18;;;1.52;;
12990;SDS011;6560;57.692;11.958;2023-05-09T12:29:24;2.58;;;1.30;;
12990;SDS011;6560;57.692;11.958;2023-05-09T12:31:51;3.33;;;1.48;;
12990;SDS011;6560;57.692;11.958;2023-05-09T12:34:16;4.35;;;1.30;;
12990;SDS011;6560;57.692;11.958;2023-05-09T12:36:45;2.85;;;1.55;;
12990;SDS011;6560;57.692;11.958;2023-05-09T12:39:16;2.22;;;1.63;;
12990;SDS011;6560;57.692;11.958;2023-05-09T12:41:45;0.95;;;0.82;;
12990;SDS011;6560;57.692;11.958;2023-05-09T12:44:19;3.15;;;1.45;;
12990;SDS011;6560;57.692;11.958;2023-05-09T12:46:51;2.15;;;1.08;;
12990;SDS011;6560;57.692;11.958;2023-05-09T12:49:20;3.08;;;1.25;;
12990;SDS011;6560;57.692;11.958;2023-05-09T12:51:49;7.25;;;1.50;;
12990;SDS011;6560;57.692;11.958;2023-05-09T12:54:24;1.83;;;1.02;;
12990;SDS011;6560;57.692;11.958;2023-05-09T12:56:51;4.45;;;1.20;;
12990;SDS011;6560;57.692;11.958;2023-05-09T12:59:20;6.45;;;1.60;;
12990;SDS011;6560;57.692;11.958;2023-05-09T13:01:49;3.78;;;1.38;;
12990;SDS011;6560;57.692;11.958;2023-05-09T13:04:15;6.32;;;1.50;;
12990;SDS011;6560;57.692;11.958;2023-05-09T13:06:47;2.90;;;1.58;;
12990;SDS011;6560;57.692;11.958;2023-05-09T13:09:13;3.65;;;1.35;;
12990;SDS011;6560;57.692;11.958;2023-05-09T13:11:38;1.30;;;1.20;;
12990;SDS011;6560;57.692;11.958;2023-05-09T13:14:04;1.45;;;1.17;;
12990;SDS011;6560;57.692;11.958;2023-05-09T13:16:29;6.43;;;1.48;;
12990;SDS011;6560;57.692;11.958;2023-05-09T13:18:55;1.90;;;1.20;;
12990;SDS011;6560;57.692;11.958;2023-05-09T13:21:20;5.13;;;1.40;;
12990;SDS011;6560;57.692;11.958;2023-05-09T13:23:46;5.50;;;1.88;;
12990;SDS011;6560;57.692;11.958;2023-05-09T13:26:13;3.80;;;1.42;;
12990;SDS011;6560;57.692;11.958;2023-05-09T13:28:39;4.07;;;1.45;;
12990;SDS011;6560;57.692;11.958;2023-05-09T13:31:04;3.25;;;1.67;;
12990;SDS011;6560;57.692;11.958;2023-05-09T13:33:30;3.78;;;1.30;;
12990;SDS011;6560;57.692;11.958;2023-05-09T13:35:56;5.35;;;1.52;;
12990;SDS011;6560;57.692;11.958;2023-05-09T13:38:21;2.80;;;1.42;;
12990;SDS011;6560;57.692;11.958;2023-05-09T13:40:46;4.60;;;1.80;;
12990;SDS011;6560;57.692;11.958;2023-05-09T13:43:12;4.82;;;1.45;;
12990;SDS011;6560;57.692;11.958;2023-05-09T13:45:37;3.08;;;1.35;;
12990;SDS011;6560;57.692;11.958;2023-05-09T13:48:03;2.90;;;1.40;;
12990;SDS011;6560;57.692;11.958;2023-05-09T13:50:28;1.83;;;1.50;;
12990;SDS011;6560;57.692;11.958;2023-05-09T13:52:53;3.35;;;1.20;;
12990;SDS011;6560;57.692;11.958;2023-05-09T13:55:19;6.03;;;1.45;;
12990;SDS011;6560;57.692;11.958;2023-05-09T13:57:44;4.68;;;1.60;;
12990;SDS011;6560;57.692;11.958;2023-05-09T14:00:10;4.03;;;1.58;;
12990;SDS011;6560;57.692;11.958;2023-05-09T14:02:35;3.35;;;1.48;;
12990;SDS011;6560;57.692;11.958;2023-05-09T14:05:01;4.18;;;1.55;;
12990;SDS011;6560;57.692;11.958;2023-05-09T14:07:28;4.28;;;1.88;;
12990;SDS011;6560;57.692;11.958;2023-05-09T14:10:00;6.72;;;1.50;;
12990;SDS011;6560;57.692;11.958;2023-05-09T14:12:25;3.90;;;1.02;;
12990;SDS011;6560;57.692;11.958;2023-05-09T14:14:51;4.13;;;1.33;;
12990;SDS011;6560;57.692;11.958;2023-05-09T14:17:16;4.45;;;1.42;;
12990;SDS011;6560;57.692;11.958;2023-05-09T14:19:42;6.53;;;1.65;;
12990;SDS011;6560;57.692;11.958;2023-05-09T14:22:07;2.42;;;1.35;;
12990;SDS011;6560;57.692;11.958;2023-05-09T14:24:32;3.80;;;1.77;;
12990;SDS011;6560;57.692;11.958;2023-05-09T14:27:00;2.88;;;1.35;;
12990;SDS011;6560;57.692;11.958;2023-05-09T14:29:26;5.05;;;1.80;;
12990;SDS011;6560;57.692;11.958;2023-05-09T14:31:51;3.85;;;1.60;;
12990;SDS011;6560;57.692;11.958;2023-05-09T14:34:17;3.35;;;1.60;;
12990;SDS011;6560;57.692;11.958;2023-05-09T14:36:42;6.57;;;1.58;;
12990;SDS011;6560;57.692;11.958;2023-05-09T14:39:07;16.52;;;1.92;;
12990;SDS011;6560;57.692;11.958;2023-05-09T14:41:33;6.72;;;1.50;;
12990;SDS011;6560;57.692;11.958;2023-05-09T14:43:58;6.65;;;1.67;;
12990;SDS011;6560;57.692;11.958;2023-05-09T14:46:24;2.25;;;1.60;;
12990;SDS011;6560;57.692;11.958;2023-05-09T14:48:49;6.30;;;1.65;;
12990;SDS011;6560;57.692;11.958;2023-05-09T14:51:16;7.47;;;2.15;;
12990;SDS011;6560;57.692;11.958;2023-05-09T14:53:41;2.28;;;1.60;;
12990;SDS011;6560;57.692;11.958;2023-05-09T14:56:07;3.40;;;1.67;;
12990;SDS011;6560;57.692;11.958;2023-05-09T14:58:32;4.45;;;1.73;;
12990;SDS011;6560;57.692;11.958;2023-05-09T15:01:01;3.20;;;1.30;;
12990;SDS011;6560;57.692;11.958;2023-05-09T15:03:26;4.53;;;1.65;;
12990;SDS011;6560;57.692;11.958;2023-05-09T15:05:52;2.63;;;1.80;;
12990;SDS011;6560;57.692;11.958;2023-05-09T15:08:17;4.55;;;1.98;;
12990;SDS011;6560;57.692;11.958;2023-05-09T15:10:43;5.68;;;3.33;;
12990;SDS011;6560;57.692;11.958;2023-05-09T15:13:09;3.53;;;1.80;;
12990;SDS011;6560;57.692;11.958;2023-05-09T15:15:34;9.50;;;2.30;;
12990;SDS011;6560;57.692;11.958;2023-05-09T15:18:02;4.63;;;2.67;;
12990;SDS011;6560;57.692;11.958;2023-05-09T15:20:27;14.63;;;7.95;;